createdAt,value
2022-12-08T00:01:39.605Z,12.86
2022-12-08T00:04:07.188Z,12.87
2022-12-08T00:06:53.320Z,12.85
2022-12-08T00:09:23.431Z,12.85
2022-12-08T00:11:55.633Z,12.57
2022-12-08T00:14:27.551Z,12.87
2022-12-08T00:16:55.331Z,12.85
2022-12-08T00:19:23.187Z,12.85
2022-12-08T00:21:50.865Z,12.74
2022-12-08T00:24:18.472Z,12.84
2022-12-08T00:26:47.293Z,12.50
2022-12-08T00:29:17.556Z,12.59
2022-12-08T00:31:45.339Z,12.84
2022-12-08T00:34:13.156Z,12.83
2022-12-08T00:36:40.719Z,12.80
2022-12-08T00:39:08.171Z,12.83
2022-12-08T00:41:53.265Z,12.83
2022-12-08T00:44:22.072Z,12.82
2022-12-08T00:46:49.592Z,12.81
2022-12-08T00:49:17.579Z,12.82
2022-12-08T00:51:45.039Z,12.60
2022-12-08T00:54:12.512Z,12.81
2022-12-08T00:56:39.987Z,12.81
2022-12-08T00:59:07.599Z,12.48
2022-12-08T01:01:36.695Z,12.81
2022-12-08T01:04:04.950Z,12.80
2022-12-08T01:06:32.444Z,12.80
2022-12-08T01:08:59.918Z,12.37
2022-12-08T01:11:27.378Z,12.81
2022-12-08T01:13:55.129Z,12.79
2022-12-08T01:16:22.777Z,12.47
2022-12-08T01:18:51.744Z,12.80
2022-12-08T01:21:19.510Z,12.79
2022-12-08T01:23:47.068Z,12.79
2022-12-08T01:26:15.647Z,12.78
2022-12-08T01:28:43.279Z,12.71
2022-12-08T01:31:12.698Z,12.78
2022-12-08T01:33:40.229Z,12.76
2022-12-08T01:36:09.978Z,12.77
2022-12-08T01:38:37.432Z,12.77
2022-12-08T01:41:04.908Z,12.72
2022-12-08T01:43:51.215Z,12.76
2022-12-08T01:46:18.751Z,12.75
2022-12-08T01:48:46.228Z,12.74
2022-12-08T01:51:15.658Z,12.74
2022-12-08T01:53:43.192Z,12.73
2022-12-08T01:56:11.852Z,12.74
2022-12-08T01:58:41.013Z,12.74
2022-12-08T02:01:08.589Z,12.73
2022-12-08T02:03:39.353Z,12.74
2022-12-08T02:06:07.366Z,12.73
2022-12-08T02:08:36.174Z,12.73
2022-12-08T02:11:03.652Z,12.73
2022-12-08T02:13:32.598Z,12.72
2022-12-08T02:16:02.247Z,12.73
2022-12-08T02:18:44.010Z,12.73
2022-12-08T02:21:12.564Z,12.73
2022-12-08T02:23:48.357Z,12.72
2022-12-08T02:26:52.783Z,12.73
2022-12-08T02:29:36.887Z,12.73
2022-12-08T02:32:16.265Z,12.72
2022-12-08T02:34:45.365Z,12.70
2022-12-08T02:37:15.183Z,12.70
2022-12-08T02:39:43.805Z,12.68
2022-12-08T02:42:13.122Z,12.03
2022-12-08T02:44:42.287Z,12.69
2022-12-08T02:47:10.926Z,12.70
2022-12-08T02:49:38.437Z,12.69
2022-12-08T02:52:08.844Z,11.81
2022-12-08T02:54:36.319Z,12.70
2022-12-08T02:57:23.607Z,12.71
2022-12-08T02:59:58.520Z,10.13
2022-12-08T03:02:33.767Z,11.67
2022-12-08T03:05:04.754Z,12.69
2022-12-08T03:07:35.184Z,12.68
2022-12-08T03:10:06.579Z,12.57
2022-12-08T03:12:35.837Z,12.66
2022-12-08T03:15:05.071Z,12.66
2022-12-08T03:17:32.581Z,12.66
2022-12-08T03:20:01.005Z,12.68
2022-12-08T03:22:28.771Z,12.68
2022-12-08T03:24:57.606Z,12.22
2022-12-08T03:27:26.023Z,12.20
2022-12-08T03:29:54.912Z,12.69
2022-12-08T03:32:25.009Z,11.41
2022-12-08T03:34:53.704Z,12.66
2022-12-08T03:37:21.484Z,11.37
2022-12-08T03:39:49.044Z,11.81
2022-12-08T03:42:17.824Z,12.66
2022-12-08T03:44:45.307Z,12.66
2022-12-08T03:47:12.765Z,12.66
2022-12-08T03:49:40.741Z,12.66
2022-12-08T03:52:08.209Z,12.66
2022-12-08T03:54:35.673Z,12.67
2022-12-08T03:57:03.152Z,12.66
2022-12-08T03:59:31.975Z,12.66
2022-12-08T04:01:59.647Z,12.64
2022-12-08T04:04:27.189Z,12.64
2022-12-08T04:06:54.688Z,12.65
2022-12-08T04:09:22.141Z,12.64
2022-12-08T04:11:49.615Z,12.64
2022-12-08T04:14:17.099Z,12.64
2022-12-08T04:16:45.924Z,12.64
2022-12-08T04:19:13.411Z,12.64
2022-12-08T04:21:40.884Z,12.63
2022-12-08T04:24:08.655Z,12.64
2022-12-08T04:26:36.129Z,12.63
2022-12-08T04:29:03.824Z,12.64
2022-12-08T04:31:31.412Z,12.59
2022-12-08T04:34:00.240Z,12.58
2022-12-08T04:36:27.831Z,12.63
2022-12-08T04:38:55.292Z,12.63
2022-12-08T04:41:22.782Z,12.60
2022-12-08T04:43:50.341Z,12.62
2022-12-08T04:46:17.879Z,12.62
2022-12-08T04:48:45.378Z,12.62
2022-12-08T04:51:16.604Z,12.62
2022-12-08T04:53:46.766Z,12.63
2022-12-08T04:56:14.832Z,12.62
2022-12-08T04:58:42.350Z,12.63
2022-12-08T05:01:09.845Z,12.63
2022-12-08T05:03:37.523Z,11.49
2022-12-08T05:06:05.120Z,12.61
2022-12-08T05:08:34.412Z,12.63
2022-12-08T05:11:05.177Z,12.61
2022-12-08T05:13:32.715Z,12.59
2022-12-08T05:16:05.029Z,12.36
2022-12-08T05:18:32.566Z,12.63
2022-12-08T05:21:00.203Z,12.65
2022-12-08T05:23:27.733Z,12.64
2022-12-08T05:25:56.506Z,12.66
2022-12-08T05:31:11.744Z,12.69
2022-12-08T05:33:39.244Z,12.70
2022-12-08T05:36:07.240Z,12.71
2022-12-08T05:38:34.797Z,12.71
2022-12-08T05:41:03.605Z,12.72
2022-12-08T05:43:31.042Z,12.74
2022-12-08T05:45:58.568Z,12.75
2022-12-08T05:48:26.157Z,12.72
2022-12-08T05:50:53.681Z,12.76
2022-12-08T05:53:21.372Z,12.72
2022-12-08T05:55:48.934Z,12.78
2022-12-08T05:58:18.648Z,12.74
2022-12-08T06:00:46.784Z,12.80
2022-12-08T06:03:14.443Z,12.82
2022-12-08T06:05:42.093Z,12.84
2022-12-08T06:08:11.733Z,12.87
2022-12-08T06:10:39.442Z,12.90
2022-12-08T06:13:06.906Z,12.91
2022-12-08T06:15:36.518Z,11.83
2022-12-08T06:18:04.035Z,12.93
2022-12-08T06:20:31.512Z,12.94
2022-12-08T06:22:58.985Z,12.94
2022-12-08T06:25:26.601Z,12.95
2022-12-08T06:27:54.095Z,12.92
2022-12-08T06:30:21.660Z,12.95
2022-12-08T06:32:50.441Z,12.98
2022-12-08T06:35:17.990Z,12.98
2022-12-08T06:37:45.475Z,12.99
2022-12-08T06:40:13.772Z,13.00
2022-12-08T06:42:47.575Z,13.01
2022-12-08T06:45:15.945Z,13.02
2022-12-08T06:47:43.421Z,13.02
2022-12-08T06:50:12.962Z,13.04
2022-12-08T06:52:49.255Z,13.05
2022-12-08T06:55:50.813Z,13.09
2022-12-08T06:58:11.128Z,13.10
2022-12-08T07:00:38.638Z,13.11
2022-12-08T07:03:06.083Z,13.11
2022-12-08T07:05:34.840Z,13.14
2022-12-08T07:08:02.374Z,13.13
2022-12-08T07:10:29.952Z,13.15
2022-12-08T07:12:57.415Z,12.85
2022-12-08T07:15:24.879Z,12.94
2022-12-08T07:17:56.393Z,12.62
2022-12-08T07:20:27.153Z,13.15
2022-12-08T07:22:55.895Z,13.38
2022-12-08T07:25:23.360Z,13.57
2022-12-08T07:27:51.659Z,13.72
2022-12-08T07:30:19.372Z,13.86
2022-12-08T07:32:46.855Z,13.96
2022-12-08T07:35:14.317Z,14.03
2022-12-08T07:37:41.787Z,13.77
2022-12-08T07:40:11.889Z,14.15
2022-12-08T07:42:39.337Z,14.10
2022-12-08T07:45:08.091Z,14.17
2022-12-08T07:47:35.549Z,14.17
2022-12-08T07:50:04.374Z,14.19
2022-12-08T07:52:32.111Z,14.21
2022-12-08T07:54:59.559Z,14.21
2022-12-08T07:57:28.323Z,14.25
2022-12-08T07:59:55.752Z,14.23
2022-12-08T08:02:25.160Z,14.25
2022-12-08T08:04:53.281Z,14.24
2022-12-08T08:07:20.849Z,14.25
2022-12-08T08:09:48.276Z,14.27
2022-12-08T08:12:31.373Z,14.24
2022-12-08T08:15:00.437Z,14.29
2022-12-08T08:17:28.018Z,14.30
2022-12-08T08:19:55.560Z,14.30
2022-12-08T08:22:23.023Z,14.31
2022-12-08T08:24:50.554Z,14.33
2022-12-08T08:27:18.020Z,14.29
2022-12-08T08:29:45.496Z,14.12
2022-12-08T08:32:14.285Z,14.24
2022-12-08T08:34:41.762Z,14.24
2022-12-08T08:37:09.265Z,14.19
2022-12-08T08:39:36.790Z,14.23
2022-12-08T08:42:04.348Z,14.21
2022-12-08T08:44:31.783Z,14.23
2022-12-08T08:46:59.237Z,14.25
2022-12-08T08:49:28.275Z,14.23
2022-12-08T08:51:55.726Z,14.25
2022-12-08T08:54:23.273Z,14.17
2022-12-08T08:56:50.764Z,13.79
2022-12-08T08:59:18.200Z,14.04
2022-12-08T09:01:45.760Z,14.02
2022-12-08T09:04:13.276Z,13.94
2022-12-08T09:06:43.085Z,13.94
2022-12-08T09:09:10.564Z,13.56
2022-12-08T09:11:38.042Z,13.91
2022-12-08T09:14:05.472Z,13.73
2022-12-08T09:16:37.493Z,13.53
2022-12-08T09:19:07.904Z,13.41
2022-12-08T09:21:35.364Z,13.75
2022-12-08T09:24:04.256Z,13.84
2022-12-08T09:26:31.732Z,13.80
2022-12-08T09:28:59.187Z,13.93
2022-12-08T09:31:26.689Z,13.90
2022-12-08T09:33:54.175Z,13.99
2022-12-08T09:36:21.824Z,14.01
2022-12-08T09:38:50.934Z,14.03
2022-12-08T09:41:23.052Z,13.67
2022-12-08T09:43:58.035Z,14.04
2022-12-08T09:46:26.280Z,14.05
2022-12-08T09:48:55.890Z,14.08
2022-12-08T09:51:24.413Z,14.08
2022-12-08T09:53:52.918Z,14.08
2022-12-08T09:56:23.354Z,14.10
2022-12-08T09:58:52.525Z,14.12
2022-12-08T10:01:20.541Z,13.89
2022-12-08T10:03:48.089Z,13.85
2022-12-08T10:06:20.220Z,14.20
2022-12-08T10:08:50.252Z,14.23
2022-12-08T10:11:24.515Z,14.24
2022-12-08T10:13:54.158Z,14.23
2022-12-08T10:16:29.483Z,13.93
2022-12-08T10:19:00.345Z,14.25
2022-12-08T10:21:28.289Z,13.99
2022-12-08T10:23:59.045Z,14.24
2022-12-08T10:26:28.039Z,14.24
2022-12-08T10:29:01.115Z,14.22
2022-12-08T10:31:28.739Z,14.19
2022-12-08T10:33:59.090Z,13.87
2022-12-08T10:36:45.264Z,14.15
2022-12-08T10:39:30.018Z,14.11
2022-12-08T10:42:03.589Z,14.00
2022-12-08T10:44:31.030Z,13.91
2022-12-08T10:46:58.521Z,13.88
2022-12-08T10:49:27.719Z,13.79
2022-12-08T10:51:55.284Z,13.91
2022-12-08T10:54:28.604Z,13.94
2022-12-08T10:56:56.352Z,13.96
2022-12-08T10:59:25.607Z,13.99
2022-12-08T11:01:53.922Z,13.52
2022-12-08T11:04:22.587Z,13.76
2022-12-08T11:06:50.836Z,14.03
2022-12-08T11:09:34.768Z,14.02
2022-12-08T11:12:06.862Z,14.01
2022-12-08T11:14:46.256Z,13.67
2022-12-08T11:17:14.668Z,13.81
2022-12-08T11:19:43.039Z,13.65
2022-12-08T11:22:22.055Z,14.08
2022-12-08T11:24:58.792Z,14.06
2022-12-08T11:27:26.244Z,14.05
2022-12-08T11:29:54.996Z,14.04
2022-12-08T11:32:22.431Z,14.01
2022-12-08T11:34:52.593Z,13.89
2022-12-08T11:37:25.871Z,13.85
2022-12-08T11:39:57.110Z,13.49
2022-12-08T11:42:26.339Z,13.91
2022-12-08T11:44:58.116Z,13.93
2022-12-08T11:47:26.698Z,13.97
2022-12-08T11:49:56.604Z,14.01
2022-12-08T11:52:27.182Z,14.04
2022-12-08T11:54:58.356Z,14.03
2022-12-08T11:57:25.811Z,13.99
2022-12-08T11:59:55.433Z,14.03
2022-12-08T12:02:24.005Z,14.03
2022-12-08T12:04:53.593Z,13.73
2022-12-08T12:07:47.122Z,14.04
2022-12-08T12:10:28.907Z,14.04
2022-12-08T12:13:08.593Z,14.04
2022-12-08T12:16:08.684Z,14.04
2022-12-08T12:18:38.602Z,14.02
2022-12-08T12:21:07.960Z,14.03
2022-12-08T12:23:37.311Z,13.86
2022-12-08T12:26:06.871Z,14.04
2022-12-08T12:28:40.755Z,14.04
2022-12-08T12:31:11.005Z,14.04
2022-12-08T12:33:38.482Z,14.03
2022-12-08T12:36:07.467Z,14.04
2022-12-08T12:38:53.373Z,14.04
2022-12-08T12:41:25.543Z,14.05
2022-12-08T12:44:13.511Z,13.70
2022-12-08T12:46:54.118Z,14.06
2022-12-08T12:49:52.938Z,14.05
2022-12-08T12:52:47.736Z,14.06
2022-12-08T12:55:25.946Z,14.06
2022-12-08T12:57:54.611Z,13.96
2022-12-08T13:00:22.985Z,14.06
2022-12-08T13:02:51.912Z,13.98
2022-12-08T13:05:20.680Z,14.01
2022-12-08T13:07:51.691Z,14.02
2022-12-08T13:10:20.935Z,13.92
2022-12-08T13:13:02.941Z,14.04
2022-12-08T13:15:35.372Z,14.03
2022-12-08T13:18:04.189Z,14.02
2022-12-08T13:20:31.922Z,14.03
2022-12-08T13:23:04.617Z,13.92
2022-12-08T13:26:12.464Z,14.04
2022-12-08T13:29:16.527Z,14.03
2022-12-08T13:31:50.167Z,14.03
2022-12-08T13:34:22.620Z,14.03
2022-12-08T13:37:04.081Z,13.84
2022-12-08T13:39:35.309Z,14.06
2022-12-08T13:42:04.798Z,14.07
2022-12-08T13:45:19.068Z,13.94
2022-12-08T13:47:33.788Z,13.90
2022-12-08T13:58:36.258Z,14.07
2022-12-08T14:01:06.621Z,14.02
2022-12-08T14:03:35.516Z,13.63
2022-12-08T14:06:13.168Z,14.15
2022-12-08T14:09:05.055Z,14.17
2022-12-08T14:11:35.290Z,14.18
2022-12-08T14:14:04.277Z,14.21
2022-12-08T14:16:34.493Z,14.22
2022-12-08T14:19:05.831Z,14.19
2022-12-08T14:21:36.391Z,14.17
2022-12-08T14:24:04.082Z,14.17
2022-12-08T14:26:33.572Z,14.16
2022-12-08T14:29:01.311Z,13.91
2022-12-08T14:31:29.162Z,13.92
2022-12-08T14:33:56.786Z,14.12
2022-12-08T14:36:24.550Z,14.12
2022-12-08T14:38:53.513Z,14.10
2022-12-08T14:41:26.297Z,14.10
2022-12-08T14:43:59.364Z,13.94
2022-12-08T14:46:26.937Z,14.09
2022-12-08T14:48:56.508Z,14.09
2022-12-08T14:51:27.762Z,14.08
2022-12-08T14:56:20.274Z,13.93
2022-12-08T14:58:48.612Z,14.06
2022-12-08T15:01:18.035Z,14.06
2022-12-08T15:03:50.666Z,13.84
2022-12-08T15:06:18.784Z,14.07
2022-12-08T15:08:53.480Z,14.07
2022-12-08T15:11:35.373Z,13.92
2022-12-08T15:14:02.976Z,14.05
2022-12-08T15:16:32.785Z,13.92
2022-12-08T15:19:06.181Z,13.81
2022-12-08T15:21:38.739Z,13.89
2022-12-08T15:24:06.286Z,14.03
2022-12-08T15:26:39.257Z,13.91
2022-12-08T15:29:11.594Z,13.78
2022-12-08T15:31:39.146Z,14.01
2022-12-08T15:34:06.730Z,14.02
2022-12-08T15:36:34.179Z,14.02
2022-12-08T15:39:01.639Z,14.02
2022-12-08T15:41:29.118Z,13.97
2022-12-08T15:43:58.017Z,14.02
2022-12-08T15:46:25.500Z,14.01
2022-12-08T15:48:57.975Z,14.00
2022-12-08T15:51:25.804Z,14.00
2022-12-08T15:53:53.271Z,14.00
2022-12-08T15:56:28.718Z,14.01
2022-12-08T15:58:58.462Z,14.00
2022-12-08T16:01:26.624Z,13.80
2022-12-08T16:04:47.521Z,14.00
2022-12-08T16:07:19.630Z,14.00
2022-12-08T16:09:30.858Z,13.98
2022-12-08T16:12:16.063Z,13.97
2022-12-08T16:17:32.433Z,13.76
2022-12-08T16:20:00.114Z,13.95
2022-12-08T16:25:20.769Z,13.71
2022-12-08T16:30:38.301Z,13.88
2022-12-08T16:33:05.866Z,13.85
2022-12-08T16:35:33.340Z,13.85
2022-12-08T16:38:00.784Z,13.83
2022-12-08T16:40:28.231Z,13.81
2022-12-08T16:42:54.722Z,13.79
2022-12-08T16:45:23.111Z,13.47
2022-12-08T16:47:52.615Z,13.59
2022-12-08T16:50:21.301Z,13.75
2022-12-08T16:52:48.833Z,13.73
2022-12-08T16:55:17.353Z,13.51
2022-12-08T16:57:44.889Z,13.50
2022-12-08T17:00:13.669Z,13.71
2022-12-08T17:02:41.109Z,13.68
2022-12-08T17:05:11.148Z,13.68
2022-12-08T17:07:38.552Z,13.63
2022-12-08T17:10:07.159Z,13.63
2022-12-08T17:12:35.705Z,13.39
2022-12-08T17:15:03.965Z,13.62
2022-12-08T17:17:32.592Z,13.58
2022-12-08T17:20:00.077Z,13.55
2022-12-08T17:22:28.863Z,13.54
2022-12-08T17:24:56.324Z,13.54
2022-12-08T17:27:23.778Z,13.52
2022-12-08T17:29:51.381Z,13.52
2022-12-08T17:32:19.742Z,13.50
2022-12-08T17:34:47.378Z,13.51
2022-12-08T17:37:14.854Z,13.51
2022-12-08T17:39:43.628Z,13.49
2022-12-08T17:42:11.165Z,13.39
2022-12-08T17:44:38.653Z,13.47
2022-12-08T17:47:06.113Z,13.47
2022-12-08T17:49:33.916Z,13.44
2022-12-08T17:52:02.145Z,13.42
2022-12-08T17:54:29.879Z,13.41
2022-12-08T17:56:58.909Z,13.40
2022-12-08T17:59:26.973Z,13.14
2022-12-08T18:01:54.604Z,13.38
2022-12-08T18:04:22.329Z,13.15
2022-12-08T18:06:49.784Z,13.36
2022-12-08T18:09:17.305Z,13.34
2022-12-08T18:11:46.003Z,13.33
2022-12-08T18:14:15.019Z,13.31
2022-12-08T18:16:43.942Z,13.28
2022-12-08T18:19:11.717Z,13.02
2022-12-08T18:21:39.310Z,13.19
2022-12-08T18:24:07.692Z,13.27
2022-12-08T18:26:35.245Z,13.17
2022-12-08T18:29:02.735Z,13.27
2022-12-08T18:31:31.601Z,13.13
2022-12-08T18:33:59.081Z,13.25
2022-12-08T18:36:26.558Z,13.25
2022-12-08T18:38:54.139Z,13.07
2022-12-08T18:41:23.259Z,13.21
2022-12-08T18:43:50.737Z,13.19
2022-12-08T18:46:18.241Z,13.20
2022-12-08T18:48:48.302Z,13.05
2022-12-08T18:51:16.481Z,13.15
2022-12-08T18:53:44.482Z,13.05
2022-12-08T18:56:21.112Z,13.20
2022-12-08T18:58:48.607Z,13.19
2022-12-08T19:01:16.075Z,13.18
2022-12-08T19:03:58.548Z,13.18
2022-12-08T19:06:32.517Z,13.06
2022-12-08T19:08:59.965Z,13.18
2022-12-08T19:11:28.611Z,13.02
2022-12-08T19:13:56.585Z,13.16
2022-12-08T19:16:24.357Z,12.99
2022-12-08T19:18:51.874Z,13.14
2022-12-08T19:21:20.235Z,13.14
2022-12-08T19:23:49.151Z,13.14
2022-12-08T19:26:17.242Z,13.14
2022-12-08T19:28:44.773Z,13.14
2022-12-08T19:31:12.286Z,13.12
2022-12-08T19:33:39.792Z,13.13
2022-12-08T19:36:07.626Z,13.12
2022-12-08T19:38:55.739Z,13.11
2022-12-08T19:41:42.318Z,13.09
2022-12-08T19:44:34.782Z,13.07
2022-12-08T19:47:02.277Z,13.03
2022-12-08T19:49:29.787Z,12.75
2022-12-08T19:51:57.230Z,13.04
2022-12-08T19:54:24.701Z,13.08
2022-12-08T19:56:53.479Z,13.07
2022-12-08T19:59:20.924Z,12.96
2022-12-08T20:01:49.133Z,13.08
2022-12-08T20:04:16.780Z,12.83
2022-12-08T20:06:44.696Z,13.06
2022-12-08T20:09:12.299Z,13.05
2022-12-08T20:11:39.928Z,12.88
2022-12-08T20:14:08.711Z,13.01
2022-12-08T20:16:36.379Z,12.83
2022-12-08T20:19:03.901Z,12.98
2022-12-08T20:21:31.378Z,12.99
2022-12-08T20:23:58.800Z,12.98
2022-12-08T20:26:26.325Z,12.86
2022-12-08T20:28:53.807Z,13.01
2022-12-08T20:31:23.437Z,12.83
2022-12-08T20:33:50.940Z,12.98
2022-12-08T20:36:19.263Z,12.73
2022-12-08T20:38:46.732Z,12.78
2022-12-08T20:41:15.896Z,12.93
2022-12-08T20:43:43.490Z,12.93
2022-12-08T20:46:11.911Z,12.74
2022-12-08T20:48:40.906Z,12.92
2022-12-08T20:51:08.997Z,12.92
2022-12-08T20:53:36.558Z,12.93
2022-12-08T20:56:04.102Z,12.92
2022-12-08T20:58:31.916Z,12.92
2022-12-08T21:00:59.451Z,12.90
2022-12-08T21:03:27.518Z,12.91
2022-12-08T21:05:56.491Z,12.91
2022-12-08T21:08:25.892Z,12.90
2022-12-08T21:10:54.518Z,12.68
2022-12-08T21:13:22.151Z,12.87
2022-12-08T21:15:49.880Z,12.87
2022-12-08T21:18:17.612Z,12.85
2022-12-08T21:20:45.173Z,12.85
2022-12-08T21:23:14.094Z,12.84
2022-12-08T21:25:42.319Z,12.70
2022-12-08T21:28:09.929Z,12.84
2022-12-08T21:30:38.839Z,12.83
2022-12-08T21:33:06.605Z,12.84
2022-12-08T21:35:34.180Z,12.83
2022-12-08T21:38:01.846Z,12.71
2022-12-08T21:40:30.842Z,12.81
2022-12-08T21:42:58.349Z,12.79
2022-12-08T21:45:25.976Z,12.77
2022-12-08T21:47:54.256Z,12.55
2022-12-08T21:50:21.817Z,12.60
2022-12-08T21:52:50.058Z,12.76
2022-12-08T21:55:18.749Z,12.75
2022-12-08T21:57:47.594Z,12.76
2022-12-08T22:00:16.613Z,12.57
2022-12-08T22:02:44.438Z,12.77
2022-12-08T22:05:12.284Z,12.66
2022-12-08T22:07:40.871Z,12.65
2022-12-08T22:10:10.417Z,12.74
2022-12-08T22:12:38.197Z,12.72
2022-12-08T22:15:08.743Z,12.72
2022-12-08T22:17:37.267Z,12.59
2022-12-08T22:20:06.762Z,12.70
2022-12-08T22:22:35.512Z,12.70
2022-12-08T22:25:03.563Z,12.55
2022-12-08T22:27:31.222Z,12.71
2022-12-08T22:29:59.029Z,12.70
2022-12-08T22:32:28.076Z,12.69
2022-12-08T22:34:55.801Z,12.70
2022-12-08T22:37:23.408Z,12.69
2022-12-08T22:39:51.010Z,12.68
2022-12-08T22:42:19.054Z,12.67
2022-12-08T22:44:46.752Z,12.69
2022-12-08T22:47:14.361Z,12.66
2022-12-08T22:49:43.451Z,12.68
2022-12-08T22:52:11.271Z,12.64
2022-12-08T22:54:39.101Z,12.64
2022-12-08T22:57:06.721Z,12.64
2022-12-08T22:59:34.599Z,12.63
2022-12-08T23:02:02.134Z,12.62
2022-12-08T23:04:29.656Z,12.63
2022-12-08T23:06:58.499Z,12.62
2022-12-08T23:09:25.937Z,12.63
2022-12-08T23:11:53.575Z,12.63
2022-12-08T23:14:21.036Z,12.60
2022-12-08T23:16:48.761Z,12.60
2022-12-08T23:19:16.245Z,12.62
2022-12-08T23:21:44.178Z,12.60
2022-12-08T23:24:12.942Z,12.58
2022-12-08T23:26:40.617Z,12.59
2022-12-08T23:29:08.059Z,12.58
2022-12-08T23:31:35.652Z,12.59
2022-12-08T23:34:03.460Z,12.59
2022-12-08T23:36:31.550Z,12.59
2022-12-08T23:38:59.204Z,12.60
2022-12-08T23:41:28.076Z,12.59
2022-12-08T23:43:55.581Z,12.60
2022-12-08T23:46:23.532Z,12.42
2022-12-08T23:48:51.391Z,12.60
2022-12-08T23:51:19.077Z,12.60
2022-12-08T23:53:46.833Z,12.59
2022-12-08T23:56:15.139Z,12.48
2022-12-08T23:58:44.151Z,12.56
